sensor_id;sensor_type;location;lat;lon;timestamp;pressure;altitude;pressure_sealevel;temperature;humidity
57616;BME280;43816;52.054;-9.494;2023-05-23T00:00:05;102670.63;;;24.36;32.24
57616;BME280;43816;52.054;-9.494;2023-05-23T00:00:16;102677.50;;;24.41;32.20
57616;BME280;43816;52.054;-9.494;2023-05-23T00:00:26;102668.19;;;24.33;32.61
57616;BME280;43816;52.054;-9.494;2023-05-23T00:00:37;102671.78;;;24.34;32.31
57616;BME280;43816;52.054;-9.494;2023-05-23T00:00:47;102652.31;;;24.27;32.22
57616;BME280;43816;52.054;-9.494;2023-05-23T00:00:58;102676.50;;;24.42;32.35
57616;BME280;43816;52.054;-9.494;2023-05-23T00:01:08;102661.28;;;24.29;32.56
57616;BME280;43816;52.054;-9.494;2023-05-23T00:01:19;102645.75;;;24.20;32.38
57616;BME280;43816;52.054;-9.494;2023-05-23T00:01:30;102661.81;;;24.33;32.47
57616;BME280;43816;52.054;-9.494;2023-05-23T00:01:40;102625.03;;;24.08;32.29
57616;BME280;43816;52.054;-9.494;2023-05-23T00:01:50;102680.41;;;24.39;32.29
57616;BME280;43816;52.054;-9.494;2023-05-23T00:02:01;102668.88;;;24.35;32.58
57616;BME280;43816;52.054;-9.494;2023-05-23T00:02:11;102680.25;;;24.41;32.51
57616;BME280;43816;52.054;-9.494;2023-05-23T00:02:21;102651.09;;;24.22;32.39
57616;BME280;43816;52.054;-9.494;2023-05-23T00:02:32;102631.78;;;24.13;32.51
57616;BME280;43816;52.054;-9.494;2023-05-23T00:02:42;102658.69;;;24.28;32.40
57616;BME280;43816;52.054;-9.494;2023-05-23T00:02:52;102640.56;;;24.17;32.39
57616;BME280;43816;52.054;-9.494;2023-05-23T00:03:03;102649.53;;;24.19;32.29
57616;BME280;43816;52.054;-9.494;2023-05-23T00:03:13;102626.78;;;24.09;32.42
57616;BME280;43816;52.054;-9.494;2023-05-23T00:03:24;102676.44;;;24.33;32.21
57616;BME280;43816;52.054;-9.494;2023-05-23T00:03:35;102631.97;;;24.12;32.52
57616;BME280;43816;52.054;-9.494;2023-05-23T00:03:45;102661.44;;;24.28;32.55
57616;BME280;43816;52.054;-9.494;2023-05-23T00:03:56;102663.53;;;24.34;32.19
57616;BME280;43816;52.054;-9.494;2023-05-23T00:04:07;102639.16;;;24.13;32.26
57616;BME280;43816;52.054;-9.494;2023-05-23T00:04:17;102660.56;;;24.27;32.25
57616;BME280;43816;52.054;-9.494;2023-05-23T00:04:27;102667.31;;;24.33;32.45
57616;BME280;43816;52.054;-9.494;2023-05-23T00:04:38;102670.63;;;24.36;32.45
57616;BME280;43816;52.054;-9.494;2023-05-23T00:04:48;102655.06;;;24.27;32.14
57616;BME280;43816;52.054;-9.494;2023-05-23T00:04:58;102664.72;;;24.31;32.34
57616;BME280;43816;52.054;-9.494;2023-05-23T00:05:09;102665.59;;;24.32;32.39
57616;BME280;43816;52.054;-9.494;2023-05-23T00:05:19;102658.00;;;24.26;32.35
57616;BME280;43816;52.054;-9.494;2023-05-23T00:05:29;102675.56;;;24.33;32.32
57616;BME280;43816;52.054;-9.494;2023-05-23T00:05:40;102647.47;;;24.21;32.36
57616;BME280;43816;52.054;-9.494;2023-05-23T00:05:50;102654.38;;;24.25;32.23
57616;BME280;43816;52.054;-9.494;2023-05-23T00:06:01;102656.81;;;24.28;32.32
57616;BME280;43816;52.054;-9.494;2023-05-23T00:06:11;102649.53;;;24.19;32.48
57616;BME280;43816;52.054;-9.494;2023-05-23T00:06:21;102648.50;;;24.20;32.25
57616;BME280;43816;52.054;-9.494;2023-05-23T00:06:32;102664.56;;;24.33;32.41
57616;BME280;43816;52.054;-9.494;2023-05-23T00:06:42;102658.16;;;24.24;32.38
57616;BME280;43816;52.054;-9.494;2023-05-23T00:06:52;102678.66;;;24.38;32.50
57616;BME280;43816;52.054;-9.494;2023-05-23T00:07:03;102652.97;;;24.21;32.66
57616;BME280;43816;52.054;-9.494;2023-05-23T00:07:14;102666.59;;;24.31;32.23
57616;BME280;43816;52.054;-9.494;2023-05-23T00:07:25;102649.19;;;24.22;32.46
57616;BME280;43816;52.054;-9.494;2023-05-23T00:07:35;102651.09;;;24.22;32.50
57616;BME280;43816;52.054;-9.494;2023-05-23T00:07:45;102673.84;;;24.32;32.29
57616;BME280;43816;52.054;-9.494;2023-05-23T00:07:56;102661.28;;;24.29;32.26
57616;BME280;43816;52.054;-9.494;2023-05-23T00:08:06;102658.69;;;24.28;32.36
57616;BME280;43816;52.054;-9.494;2023-05-23T00:08:17;102676.28;;;24.35;32.64
57616;BME280;43816;52.054;-9.494;2023-05-23T00:08:27;102669.69;;;24.28;32.41
57616;BME280;43816;52.054;-9.494;2023-05-23T00:08:37;102670.94;;;24.33;32.74
57616;BME280;43816;52.054;-9.494;2023-05-23T00:08:48;102671.09;;;24.32;32.35
57616;BME280;43816;52.054;-9.494;2023-05-23T00:08:58;102665.06;;;24.28;32.36
57616;BME280;43816;52.054;-9.494;2023-05-23T00:09:09;102671.78;;;24.34;32.62
57616;BME280;43816;52.054;-9.494;2023-05-23T00:09:19;102668.50;;;24.30;32.25
57616;BME280;43816;52.054;-9.494;2023-05-23T00:09:29;102652.97;;;24.21;32.38
57616;BME280;43816;52.054;-9.494;2023-05-23T00:09:39;102646.25;;;24.15;32.46
57616;BME280;43816;52.054;-9.494;2023-05-23T00:09:50;102671.25;;;24.30;32.21
57616;BME280;43816;52.054;-9.494;2023-05-23T00:10:00;102662.63;;;24.25;31.98
57616;BME280;43816;52.054;-9.494;2023-05-23T00:10:12;102656.75;;;24.20;32.55
57616;BME280;43816;52.054;-9.494;2023-05-23T00:10:23;102668.50;;;24.30;32.35
57616;BME280;43816;52.054;-9.494;2023-05-23T00:10:33;102671.41;;;24.29;32.39
57616;BME280;43816;52.054;-9.494;2023-05-23T00:10:44;102679.19;;;24.33;32.49
57616;BME280;43816;52.054;-9.494;2023-05-23T00:10:54;102661.94;;;24.23;32.58
57616;BME280;43816;52.054;-9.494;2023-05-23T00:11:05;102663.66;;;24.24;32.36
57616;BME280;43816;52.054;-9.494;2023-05-23T00:11:15;102673.47;;;24.27;32.59
57616;BME280;43816;52.054;-9.494;2023-05-23T00:11:25;102677.44;;;24.32;32.71
57616;BME280;43816;52.054;-9.494;2023-05-23T00:11:36;102679.50;;;24.30;32.41
57616;BME280;43816;52.054;-9.494;2023-05-23T00:11:46;102663.97;;;24.21;32.55
57616;BME280;43816;52.054;-9.494;2023-05-23T00:11:56;102663.81;;;24.23;32.38
57616;BME280;43816;52.054;-9.494;2023-05-23T00:12:07;102658.78;;;24.18;32.44
57616;BME280;43816;52.054;-9.494;2023-05-23T00:12:17;102656.03;;;24.18;32.29
57616;BME280;43816;52.054;-9.494;2023-05-23T00:12:27;102667.09;;;24.26;32.27
57616;BME280;43816;52.054;-9.494;2023-05-23T00:12:38;102669.69;;;24.28;32.28
57616;BME280;43816;52.054;-9.494;2023-05-23T00:12:48;102665.38;;;24.25;32.42
57616;BME280;43816;52.054;-9.494;2023-05-23T00:12:58;102665.38;;;24.25;32.43
57616;BME280;43816;52.054;-9.494;2023-05-23T00:13:09;102661.53;;;24.18;32.22
57616;BME280;43816;52.054;-9.494;2023-05-23T00:13:19;102669.84;;;24.26;32.30
57616;BME280;43816;52.054;-9.494;2023-05-23T00:13:29;102673.63;;;24.25;32.37
57616;BME280;43816;52.054;-9.494;2023-05-23T00:13:40;102656.03;;;24.18;32.41
57616;BME280;43816;52.054;-9.494;2023-05-23T00:13:57;102666.72;;;24.21;32.20
57616;BME280;43816;52.054;-9.494;2023-05-23T00:14:07;102684.31;;;24.28;32.58
57616;BME280;43816;52.054;-9.494;2023-05-23T00:14:17;102656.75;;;24.20;32.28
57616;BME280;43816;52.054;-9.494;2023-05-23T00:14:28;102668.13;;;24.25;32.41
57616;BME280;43816;52.054;-9.494;2023-05-23T00:14:38;102664.69;;;24.23;32.22
57616;BME280;43816;52.054;-9.494;2023-05-23T00:14:48;102677.78;;;24.29;32.32
57616;BME280;43816;52.054;-9.494;2023-05-23T00:14:58;102654.16;;;24.18;32.52
57616;BME280;43816;52.054;-9.494;2023-05-23T00:15:09;102673.47;;;24.27;32.27
57616;BME280;43816;52.054;-9.494;2023-05-23T00:15:19;102641.22;;;24.11;32.22
57616;BME280;43816;52.054;-9.494;2023-05-23T00:15:30;102670.00;;;24.25;32.43
57616;BME280;43816;52.054;-9.494;2023-05-23T00:15:41;102658.78;;;24.18;32.41
57616;BME280;43816;52.054;-9.494;2023-05-23T00:15:51;102663.66;;;24.24;32.30
57616;BME280;43816;52.054;-9.494;2023-05-23T00:16:02;102651.03;;;24.13;32.50
57616;BME280;43816;52.054;-9.494;2023-05-23T00:16:13;102658.78;;;24.18;32.48
57616;BME280;43816;52.054;-9.494;2023-05-23T00:16:23;102668.28;;;24.24;32.28
57616;BME280;43816;52.054;-9.494;2023-05-23T00:16:33;102670.19;;;24.23;32.31
57616;BME280;43816;52.054;-9.494;2023-05-23T00:16:44;102672.59;;;24.26;32.43
57616;BME280;43816;52.054;-9.494;2023-05-23T00:16:55;102654.50;;;24.15;32.35
57616;BME280;43816;52.054;-9.494;2023-05-23T00:17:06;102672.22;;;24.21;32.38
57616;BME280;43816;52.054;-9.494;2023-05-23T00:17:17;102637.41;;;24.04;32.22
57616;BME280;43816;52.054;-9.494;2023-05-23T00:17:27;102679.81;;;24.27;32.44
57616;BME280;43816;52.054;-9.494;2023-05-23T00:17:37;102658.25;;;24.14;32.17
57616;BME280;43816;52.054;-9.494;2023-05-23T00:17:48;102659.50;;;24.20;32.45
57616;BME280;43816;52.054;-9.494;2023-05-23T00:17:58;102653.97;;;24.12;32.35
57616;BME280;43816;52.054;-9.494;2023-05-23T00:18:09;102647.03;;;24.08;32.41
57616;BME280;43816;52.054;-9.494;2023-05-23T00:18:20;102662.75;;;24.15;32.35
57616;BME280;43816;52.054;-9.494;2023-05-23T00:18:30;102671.03;;;24.24;32.42
57616;BME280;43816;52.054;-9.494;2023-05-23T00:18:40;102668.78;;;24.19;32.40
57616;BME280;43816;52.054;-9.494;2023-05-23T00:18:51;102685.50;;;24.26;32.38
57616;BME280;43816;52.054;-9.494;2023-05-23T00:19:01;102687.38;;;24.25;32.33
57616;BME280;43816;52.054;-9.494;2023-05-23T00:19:12;102663.91;;;24.13;32.40
57616;BME280;43816;52.054;-9.494;2023-05-23T00:19:22;102655.66;;;24.13;32.42
57616;BME280;43816;52.054;-9.494;2023-05-23T00:19:33;102654.13;;;24.10;32.29
57616;BME280;43816;52.054;-9.494;2023-05-23T00:19:43;102668.09;;;24.17;32.34
57616;BME280;43816;52.054;-9.494;2023-05-23T00:19:53;102657.41;;;24.14;32.39
57616;BME280;43816;52.054;-9.494;2023-05-23T00:20:05;102661.88;;;24.15;32.19
57616;BME280;43816;52.054;-9.494;2023-05-23T00:20:16;102657.72;;;24.11;32.49
57616;BME280;43816;52.054;-9.494;2023-05-23T00:20:26;102659.78;;;24.09;32.34
57616;BME280;43816;52.054;-9.494;2023-05-23T00:20:37;102680.16;;;24.24;32.53
57616;BME280;43816;52.054;-9.494;2023-05-23T00:20:47;102667.03;;;24.18;32.44
57616;BME280;43816;52.054;-9.494;2023-05-23T00:20:58;102668.41;;;24.14;32.08
57616;BME280;43816;52.054;-9.494;2023-05-23T00:21:08;102662.56;;;24.17;32.46
57616;BME280;43816;52.054;-9.494;2023-05-23T00:21:18;102677.56;;;24.23;32.24
57616;BME280;43816;52.054;-9.494;2023-05-23T00:21:28;102671.00;;;24.15;32.30
57616;BME280;43816;52.054;-9.494;2023-05-23T00:21:39;102673.59;;;24.17;32.31
57616;BME280;43816;52.054;-9.494;2023-05-23T00:21:50;102671.00;;;24.15;32.37
57616;BME280;43816;52.054;-9.494;2023-05-23T00:22:00;102677.72;;;24.21;32.61
57616;BME280;43816;52.054;-9.494;2023-05-23T00:22:11;102682.19;;;24.22;32.11
57616;BME280;43816;52.054;-9.494;2023-05-23T00:22:21;102654.59;;;24.06;32.25
57616;BME280;43816;52.054;-9.494;2023-05-23T00:22:31;102647.50;;;24.03;32.47
57616;BME280;43816;52.054;-9.494;2023-05-23T00:22:42;102668.09;;;24.17;32.25
57616;BME280;43816;52.054;-9.494;2023-05-23T00:22:52;102673.59;;;24.17;32.14
57616;BME280;43816;52.054;-9.494;2023-05-23T00:23:03;102665.81;;;24.12;32.48
57616;BME280;43816;52.054;-9.494;2023-05-23T00:23:13;102657.19;;;24.07;32.37
57616;BME280;43816;52.054;-9.494;2023-05-23T00:23:23;102645.97;;;24.00;32.32
57616;BME280;43816;52.054;-9.494;2023-05-23T00:23:34;102668.72;;;24.11;32.32
57616;BME280;43816;52.054;-9.494;2023-05-23T00:23:44;102681.50;;;24.20;32.29
57616;BME280;43816;52.054;-9.494;2023-05-23T00:23:54;102679.63;;;24.20;32.45
57616;BME280;43816;52.054;-9.494;2023-05-23T00:24:05;102659.78;;;24.09;32.30
57616;BME280;43816;52.054;-9.494;2023-05-23T00:24:15;102663.91;;;24.13;32.35
57616;BME280;43816;52.054;-9.494;2023-05-23T00:24:26;102664.22;;;24.10;32.61
57616;BME280;43816;52.054;-9.494;2023-05-23T00:24:36;102670.47;;;24.12;32.65
57616;BME280;43816;52.054;-9.494;2023-05-23T00:24:46;102666.50;;;24.14;32.38
57616;BME280;43816;52.054;-9.494;2023-05-23T00:24:57;102679.06;;;24.17;32.32
57616;BME280;43816;52.054;-9.494;2023-05-23T00:25:10;102657.50;;;24.04;32.67
57616;BME280;43816;52.054;-9.494;2023-05-23T00:25:20;102659.41;;;24.04;32.33
57616;BME280;43816;52.054;-9.494;2023-05-23T00:25:30;102672.16;;;24.13;32.27
57616;BME280;43816;52.054;-9.494;2023-05-23T00:25:41;102673.91;;;24.14;32.28
57616;BME280;43816;52.054;-9.494;2023-05-23T00:25:51;102674.06;;;24.12;32.35
57616;BME280;43816;52.054;-9.494;2023-05-23T00:26:01;102679.41;;;24.14;32.18
57616;BME280;43816;52.054;-9.494;2023-05-23T00:26:12;102666.97;;;24.10;32.34
57616;BME280;43816;52.054;-9.494;2023-05-23T00:26:22;102645.13;;;24.00;32.45
57616;BME280;43816;52.054;-9.494;2023-05-23T00:26:32;102669.56;;;24.11;32.52
57616;BME280;43816;52.054;-9.494;2023-05-23T00:26:46;102678.53;;;24.13;32.57
57616;BME280;43816;52.054;-9.494;2023-05-23T00:26:56;102666.59;;;24.05;32.42
57616;BME280;43816;52.054;-9.494;2023-05-23T00:27:07;102673.38;;;24.10;32.42
57616;BME280;43816;52.054;-9.494;2023-05-23T00:27:17;102680.97;;;24.16;32.29
57616;BME280;43816;52.054;-9.494;2023-05-23T00:27:27;102666.59;;;24.05;32.37
57616;BME280;43816;52.054;-9.494;2023-05-23T00:27:38;102668.19;;;24.07;32.39
57616;BME280;43816;52.054;-9.494;2023-05-23T00:27:48;102664.91;;;24.04;32.32
57616;BME280;43816;52.054;-9.494;2023-05-23T00:27:59;102682.00;;;24.15;32.22
57616;BME280;43816;52.054;-9.494;2023-05-23T00:28:09;102675.94;;;24.12;32.18
57616;BME280;43816;52.054;-9.494;2023-05-23T00:28:20;102678.22;;;24.16;32.37
57616;BME280;43816;52.054;-9.494;2023-05-23T00:28:30;102666.44;;;24.06;32.28
57616;BME280;43816;52.054;-9.494;2023-05-23T00:28:40;102658.69;;;24.01;32.34
57616;BME280;43816;52.054;-9.494;2023-05-23T00:28:51;102684.91;;;24.14;32.29
57616;BME280;43816;52.054;-9.494;2023-05-23T00:29:02;102664.91;;;24.04;32.50
57616;BME280;43816;52.054;-9.494;2023-05-23T00:29:14;102678.69;;;24.12;32.34
57616;BME280;43816;52.054;-9.494;2023-05-23T00:29:24;102676.13;;;24.10;32.28
57616;BME280;43816;52.054;-9.494;2023-05-23T00:29:35;102681.13;;;24.15;32.28
57616;BME280;43816;52.054;-9.494;2023-05-23T00:29:45;102665.06;;;24.02;32.24
57616;BME280;43816;52.054;-9.494;2023-05-23T00:29:55;102665.91;;;24.02;32.29
57616;BME280;43816;52.054;-9.494;2023-05-23T00:30:06;102662.16;;;24.04;32.36
57616;BME280;43816;52.054;-9.494;2023-05-23T00:30:17;102673.84;;;24.06;32.29
57616;BME280;43816;52.054;-9.494;2023-05-23T00:30:33;102677.97;;;24.10;32.57
57616;BME280;43816;52.054;-9.494;2023-05-23T00:30:43;102682.31;;;24.12;32.14
57616;BME280;43816;52.054;-9.494;2023-05-23T00:30:54;102680.72;;;24.10;32.41
57616;BME280;43816;52.054;-9.494;2023-05-23T00:31:04;102662.47;;;24.00;32.51
57616;BME280;43816;52.054;-9.494;2023-05-23T00:31:14;102680.03;;;24.08;32.33
57616;BME280;43816;52.054;-9.494;2023-05-23T00:31:25;102676.28;;;24.09;32.44
57616;BME280;43816;52.054;-9.494;2023-05-23T00:31:35;102670.72;;;24.00;32.32
57616;BME280;43816;52.054;-9.494;2023-05-23T00:31:45;102664.34;;;24.00;32.37
57616;BME280;43816;52.054;-9.494;2023-05-23T00:31:56;102665.91;;;24.02;32.32
57616;BME280;43816;52.054;-9.494;2023-05-23T00:32:06;102658.50;;;23.95;32.38
57616;BME280;43816;52.054;-9.494;2023-05-23T00:32:16;102667.66;;;24.04;32.58
57616;BME280;43816;52.054;-9.494;2023-05-23T00:32:27;102668.66;;;24.02;32.28
57616;BME280;43816;52.054;-9.494;2023-05-23T00:32:37;102689.53;;;24.13;32.62
57616;BME280;43816;52.054;-9.494;2023-05-23T00:32:47;102660.72;;;23.99;32.30
57616;BME280;43816;52.054;-9.494;2023-05-23T00:32:58;102662.78;;;23.97;32.20
57616;BME280;43816;52.054;-9.494;2023-05-23T00:33:09;102673.84;;;24.06;32.48
57616;BME280;43816;52.054;-9.494;2023-05-23T00:33:19;102665.91;;;24.02;32.14
57616;BME280;43816;52.054;-9.494;2023-05-23T00:33:30;102683.31;;;24.11;32.32
57616;BME280;43816;52.054;-9.494;2023-05-23T00:33:40;102674.84;;;24.05;32.77
57616;BME280;43816;52.054;-9.494;2023-05-23T00:33:50;102682.78;;;24.08;32.44
57616;BME280;43816;52.054;-9.494;2023-05-23T00:34:01;102676.44;;;24.07;32.53
57616;BME280;43816;52.054;-9.494;2023-05-23T00:34:12;102674.00;;;24.04;32.38
57616;BME280;43816;52.054;-9.494;2023-05-23T00:34:22;102674.16;;;24.02;32.32
57616;BME280;43816;52.054;-9.494;2023-05-23T00:34:33;102683.47;;;24.10;32.34
57616;BME280;43816;52.054;-9.494;2023-05-23T00:34:43;102655.53;;;23.96;32.48
57616;BME280;43816;52.054;-9.494;2023-05-23T00:34:53;102678.66;;;24.04;32.32
57616;BME280;43816;52.054;-9.494;2023-05-23T00:35:04;102674.69;;;24.06;32.23
57616;BME280;43816;52.054;-9.494;2023-05-23T00:35:14;102678.31;;;24.07;32.46
57616;BME280;43816;52.054;-9.494;2023-05-23T00:35:25;102674.84;;;24.05;32.39
57616;BME280;43816;52.054;-9.494;2023-05-23T00:35:35;102670.00;;;23.98;32.46
57616;BME280;43816;52.054;-9.494;2023-05-23T00:35:46;102673.16;;;24.04;32.64
57616;BME280;43816;52.054;-9.494;2023-05-23T00:35:58;102671.25;;;24.04;32.48
57616;BME280;43816;52.054;-9.494;2023-05-23T00:36:08;102678.66;;;24.04;32.47
57616;BME280;43816;52.054;-9.494;2023-05-23T00:36:18;102660.19;;;23.96;32.29
57616;BME280;43816;52.054;-9.494;2023-05-23T00:36:29;102644.53;;;23.88;32.35
57616;BME280;43816;52.054;-9.494;2023-05-23T00:36:39;102674.69;;;24.06;32.69
57616;BME280;43816;52.054;-9.494;2023-05-23T00:36:49;102666.94;;;24.01;32.46
57616;BME280;43816;52.054;-9.494;2023-05-23T00:37:00;102678.31;;;24.07;32.39
57616;BME280;43816;52.054;-9.494;2023-05-23T00:37:10;102667.97;;;24.00;32.53
57616;BME280;43816;52.054;-9.494;2023-05-23T00:37:21;102666.06;;;24.01;32.41
57616;BME280;43816;52.054;-9.494;2023-05-23T00:37:31;102669.50;;;24.03;32.18
57616;BME280;43816;52.054;-9.494;2023-05-23T00:37:41;102668.66;;;24.02;32.54
57616;BME280;43816;52.054;-9.494;2023-05-23T00:37:52;102667.09;;;24.00;32.31
57616;BME280;43816;52.054;-9.494;2023-05-23T00:38:02;102673.84;;;24.06;32.30
57616;BME280;43816;52.054;-9.494;2023-05-23T00:38:12;102647.28;;;23.88;32.35
57616;BME280;43816;52.054;-9.494;2023-05-23T00:38:23;102654.84;;;23.94;32.55
57616;BME280;43816;52.054;-9.494;2023-05-23T00:38:33;102657.59;;;23.94;32.44
57616;BME280;43816;52.054;-9.494;2023-05-23T00:38:43;102667.25;;;23.98;32.46
57616;BME280;43816;52.054;-9.494;2023-05-23T00:38:53;102658.28;;;23.96;32.58
57616;BME280;43816;52.054;-9.494;2023-05-23T00:39:04;102661.03;;;23.96;32.34
57616;BME280;43816;52.054;-9.494;2023-05-23T00:39:15;102673.84;;;24.06;32.65
57616;BME280;43816;52.054;-9.494;2023-05-23T00:39:25;102654.16;;;23.92;32.38
57616;BME280;43816;52.054;-9.494;2023-05-23T00:39:35;102655.53;;;23.96;32.44
57616;BME280;43816;52.054;-9.494;2023-05-23T00:39:46;102660.03;;;23.97;32.39
57616;BME280;43816;52.054;-9.494;2023-05-23T00:39:56;102676.44;;;24.07;32.36
57616;BME280;43816;52.054;-9.494;2023-05-23T00:40:07;102644.84;;;23.85;32.37
57616;BME280;43816;52.054;-9.494;2023-05-23T00:40:17;102658.28;;;23.96;32.50
57616;BME280;43816;52.054;-9.494;2023-05-23T00:40:28;102665.38;;;23.99;32.38
57616;BME280;43816;52.054;-9.494;2023-05-23T00:40:38;102658.28;;;23.96;32.48
57616;BME280;43816;52.054;-9.494;2023-05-23T00:40:49;102664.84;;;23.95;32.51
57616;BME280;43816;52.054;-9.494;2023-05-23T00:41:00;102659.66;;;23.92;32.45
57616;BME280;43816;52.054;-9.494;2023-05-23T00:41:11;102651.88;;;23.88;32.63
57616;BME280;43816;52.054;-9.494;2023-05-23T00:41:21;102682.41;;;24.02;32.57
57616;BME280;43816;52.054;-9.494;2023-05-23T00:41:31;102668.28;;;23.97;32.21
57616;BME280;43816;52.054;-9.494;2023-05-23T00:41:41;102666.53;;;23.96;32.27
57616;BME280;43816;52.054;-9.494;2023-05-23T00:41:52;102656.91;;;23.92;32.29
57616;BME280;43816;52.054;-9.494;2023-05-23T00:42:05;102674.47;;;23.99;32.41
57616;BME280;43816;52.054;-9.494;2023-05-23T00:42:16;102655.31;;;23.90;32.29
57616;BME280;43816;52.054;-9.494;2023-05-23T00:42:26;102663.97;;;23.95;32.25
57616;BME280;43816;52.054;-9.494;2023-05-23T00:42:36;102666.88;;;23.93;32.42
57616;BME280;43816;52.054;-9.494;2023-05-23T00:42:47;102671.19;;;23.96;32.44
57616;BME280;43816;52.054;-9.494;2023-05-23T00:42:57;102663.97;;;23.95;32.50
57616;BME280;43816;52.054;-9.494;2023-05-23T00:43:07;102681.88;;;23.99;32.59
57616;BME280;43816;52.054;-9.494;2023-05-23T00:43:18;102654.47;;;23.89;32.28
57616;BME280;43816;52.054;-9.494;2023-05-23T00:43:28;102671.50;;;23.93;32.37
57616;BME280;43816;52.054;-9.494;2023-05-23T00:43:38;102675.66;;;23.97;32.46
57616;BME280;43816;52.054;-9.494;2023-05-23T00:43:49;102681.72;;;24.00;32.50
57616;BME280;43816;52.054;-9.494;2023-05-23T00:43:59;102659.97;;;23.89;32.42
57616;BME280;43816;52.054;-9.494;2023-05-23T00:44:09;102675.28;;;23.92;32.35
57616;BME280;43816;52.054;-9.494;2023-05-23T00:44:19;102687.22;;;24.00;32.30
57616;BME280;43816;52.054;-9.494;2023-05-23T00:44:30;102659.97;;;23.89;32.51
57616;BME280;43816;52.054;-9.494;2023-05-23T00:44:40;102670.66;;;23.92;32.53
57616;BME280;43816;52.054;-9.494;2023-05-23T00:44:50;102674.41;;;23.91;32.55
57616;BME280;43816;52.054;-9.494;2023-05-23T00:45:01;102683.91;;;23.97;32.44
57616;BME280;43816;52.054;-9.494;2023-05-23T00:45:11;102661.00;;;23.88;32.41
57616;BME280;43816;52.054;-9.494;2023-05-23T00:45:21;102685.31;;;24.01;32.24
57616;BME280;43816;52.054;-9.494;2023-05-23T00:45:32;102672.91;;;23.97;32.40
57616;BME280;43816;52.054;-9.494;2023-05-23T00:45:42;102663.91;;;23.87;32.65
57616;BME280;43816;52.054;-9.494;2023-05-23T00:45:52;102689.09;;;24.00;32.38
57616;BME280;43816;52.054;-9.494;2023-05-23T00:46:09;102657.00;;;23.82;32.53
57616;BME280;43816;52.054;-9.494;2023-05-23T00:46:24;102644.75;;;23.77;32.42
57616;BME280;43816;52.054;-9.494;2023-05-23T00:46:35;102671.66;;;23.91;32.54
57616;BME280;43816;52.054;-9.494;2023-05-23T00:46:50;102685.63;;;23.98;32.41
57616;BME280;43816;52.054;-9.494;2023-05-23T00:47:04;102598.75;;;23.43;32.46
57616;BME280;43816;52.054;-9.494;2023-05-23T00:47:16;102633.13;;;23.65;32.39
57616;BME280;43816;52.054;-9.494;2023-05-23T00:47:27;102668.53;;;23.86;32.30
57616;BME280;43816;52.054;-9.494;2023-05-23T00:47:39;102685.09;;;23.94;32.45
57616;BME280;43816;52.054;-9.494;2023-05-23T00:47:50;102670.28;;;23.87;32.53
57616;BME280;43816;52.054;-9.494;2023-05-23T00:48:01;102654.84;;;23.76;32.58
57616;BME280;43816;52.054;-9.494;2023-05-23T00:48:12;102677.31;;;23.90;32.51
57616;BME280;43816;52.054;-9.494;2023-05-23T00:48:23;102671.81;;;23.90;32.17
57616;BME280;43816;52.054;-9.494;2023-05-23T00:48:34;102664.94;;;23.86;32.49
57616;BME280;43816;52.054;-9.494;2023-05-23T00:48:44;102670.59;;;23.84;32.38
57616;BME280;43816;52.054;-9.494;2023-05-23T00:48:55;102678.19;;;23.90;32.07
57616;BME280;43816;52.054;-9.494;2023-05-23T00:49:05;102672.00;;;23.88;32.44
57616;BME280;43816;52.054;-9.494;2023-05-23T00:49:16;102674.19;;;23.85;32.52
57616;BME280;43816;52.054;-9.494;2023-05-23T00:49:27;102680.56;;;23.85;32.22
57616;BME280;43816;52.054;-9.494;2023-05-23T00:49:37;102684.41;;;23.92;32.28
57616;BME280;43816;52.054;-9.494;2023-05-23T00:49:47;102693.03;;;23.97;32.51
57616;BME280;43816;52.054;-9.494;2023-05-23T00:49:58;102678.50;;;23.87;32.15
57616;BME280;43816;52.054;-9.494;2023-05-23T00:50:10;102680.25;;;23.88;32.43
57616;BME280;43816;52.054;-9.494;2023-05-23T00:50:21;102665.38;;;23.81;32.39
57616;BME280;43816;52.054;-9.494;2023-05-23T00:50:31;102680.25;;;23.88;32.60
57616;BME280;43816;52.054;-9.494;2023-05-23T00:50:42;102680.41;;;23.87;32.25
57616;BME280;43816;52.054;-9.494;2023-05-23T00:50:53;102686.59;;;23.89;32.37
57616;BME280;43816;52.054;-9.494;2023-05-23T00:51:04;102681.81;;;23.91;32.66
57616;BME280;43816;52.054;-9.494;2023-05-23T00:51:14;102675.06;;;23.85;32.47
57616;BME280;43816;52.054;-9.494;2023-05-23T00:51:25;102678.81;;;23.84;32.18
57616;BME280;43816;52.054;-9.494;2023-05-23T00:51:36;102690.75;;;23.93;32.45
57616;BME280;43816;52.054;-9.494;2023-05-23T00:51:47;102680.94;;;23.90;32.31
57616;BME280;43816;52.054;-9.494;2023-05-23T00:51:57;102691.78;;;23.92;32.57
57616;BME280;43816;52.054;-9.494;2023-05-23T00:52:08;102678.50;;;23.87;32.54
57616;BME280;43816;52.054;-9.494;2023-05-23T00:52:19;102690.38;;;23.88;32.35
57616;BME280;43816;52.054;-9.494;2023-05-23T00:52:29;102674.66;;;23.80;32.40
57616;BME280;43816;52.054;-9.494;2023-05-23T00:52:41;102703.63;;;23.92;32.54
57616;BME280;43816;52.054;-9.494;2023-05-23T00:52:52;102679.69;;;23.85;32.46
57616;BME280;43816;52.054;-9.494;2023-05-23T00:53:02;102692.47;;;23.94;32.38
57616;BME280;43816;52.054;-9.494;2023-05-23T00:53:13;102682.28;;;23.86;32.45
57616;BME280;43816;52.054;-9.494;2023-05-23T00:53:23;102690.53;;;23.86;32.36
57616;BME280;43816;52.054;-9.494;2023-05-23T00:53:34;102691.78;;;23.92;32.46
57616;BME280;43816;52.054;-9.494;2023-05-23T00:53:45;102683.69;;;23.90;32.55
57616;BME280;43816;52.054;-9.494;2023-05-23T00:53:56;102676.38;;;23.81;32.31
57616;BME280;43816;52.054;-9.494;2023-05-23T00:54:08;102662.88;;;23.70;32.50
57616;BME280;43816;52.054;-9.494;2023-05-23T00:54:27;102697.97;;;23.94;32.35
57616;BME280;43816;52.054;-9.494;2023-05-23T00:54:38;102691.78;;;23.92;32.59
57616;BME280;43816;52.054;-9.494;2023-05-23T00:54:51;102668.44;;;23.78;32.38
57616;BME280;43816;52.054;-9.494;2023-05-23T00:55:02;102634.22;;;23.54;32.72